createdAt,value
2022-12-09T00:01:28.260Z,55.53
2022-12-09T00:03:58.038Z,50.93
2022-12-09T00:06:30.358Z,58.63
2022-12-09T00:09:00.303Z,53.90
2022-12-09T00:11:29.179Z,51.27
2022-12-09T00:13:59.595Z,48.33
2022-12-09T00:16:28.426Z,54.07
2022-12-09T00:18:59.659Z,52.00
2022-12-09T00:21:32.324Z,50.73
2022-12-09T00:24:02.523Z,48.03
2022-12-09T00:26:31.602Z,49.07
2022-12-09T00:29:01.664Z,53.70
2022-12-09T00:31:33.176Z,56.57
2022-12-09T00:34:04.041Z,47.83
2022-12-09T00:36:34.741Z,52.97
2022-12-09T00:39:03.549Z,50.23
2022-12-09T00:41:32.141Z,52.87
2022-12-09T00:44:00.818Z,54.30
2022-12-09T00:46:29.637Z,50.63
2022-12-09T00:48:58.698Z,53.40
2022-12-09T00:51:27.596Z,52.07
2022-12-09T00:53:57.497Z,53.73
2022-12-09T00:56:30.118Z,57.57
2022-12-09T00:58:59.574Z,53.33
2022-12-09T01:01:29.222Z,51.53
2022-12-09T01:03:58.897Z,55.63
2022-12-09T01:06:28.332Z,57.67
2022-12-09T01:08:58.644Z,52.03
2022-12-09T01:11:30.117Z,57.80
2022-12-09T01:14:01.629Z,52.80
2022-12-09T01:16:32.643Z,53.63
2022-12-09T01:19:04.884Z,54.00
2022-12-09T01:21:34.959Z,55.40
2022-12-09T01:24:08.634Z,51.40
2022-12-09T01:26:37.602Z,59.27
2022-12-09T01:29:06.937Z,48.50
2022-12-09T01:31:35.538Z,55.40
2022-12-09T01:34:04.558Z,54.53
2022-12-09T01:36:33.167Z,47.87
2022-12-09T01:39:02.084Z,54.07
2022-12-09T01:41:32.079Z,52.20
2022-12-09T01:44:22.601Z,70.17
2022-12-09T01:46:55.303Z,54.70
2022-12-09T01:49:27.698Z,55.67
2022-12-09T01:52:04.802Z,58.73
2022-12-09T01:54:34.065Z,55.90
2022-12-09T01:57:06.584Z,63.80
2022-12-09T01:59:37.833Z,49.97
2022-12-09T02:02:10.848Z,56.97
2022-12-09T02:04:46.282Z,54.13
2022-12-09T02:07:17.213Z,55.90
2022-12-09T02:09:45.722Z,59.40
2022-12-09T02:12:18.681Z,58.70
2022-12-09T02:14:57.278Z,50.93
2022-12-09T02:17:33.612Z,59.03
2022-12-09T02:20:14.581Z,52.93
2022-12-09T02:22:47.084Z,56.43
2022-12-09T02:25:27.911Z,50.53
2022-12-09T02:28:16.410Z,56.07
2022-12-09T02:30:57.215Z,52.23
2022-12-09T02:33:46.234Z,58.87
2022-12-09T02:36:22.211Z,59.87
2022-12-09T02:38:53.893Z,59.27
2022-12-09T02:41:27.599Z,53.87
2022-12-09T02:44:05.478Z,53.17
2022-12-09T02:46:37.268Z,59.33
2022-12-09T02:49:10.847Z,57.90
2022-12-09T02:51:42.688Z,54.90
2022-12-09T02:54:16.688Z,53.40
2022-12-09T02:56:52.478Z,55.80
2022-12-09T02:59:21.462Z,52.00
2022-12-09T03:02:04.716Z,62.13
2022-12-09T03:04:33.529Z,59.50
2022-12-09T03:07:14.664Z,60.23
2022-12-09T03:09:49.099Z,56.80
2022-12-09T03:12:21.304Z,65.70
2022-12-09T03:14:53.852Z,57.77
2022-12-09T03:17:27.557Z,56.43
2022-12-09T03:19:59.792Z,61.73
2022-12-09T03:22:32.746Z,54.47
2022-12-09T03:25:07.000Z,60.43
2022-12-09T03:27:39.549Z,56.73
2022-12-09T03:30:11.458Z,56.00
2022-12-09T03:32:43.062Z,58.47
2022-12-09T03:35:17.085Z,69.00
2022-12-09T03:37:49.061Z,57.17
2022-12-09T03:40:21.274Z,60.47
2022-12-09T03:42:55.067Z,66.47
2022-12-09T03:45:24.890Z,60.97
2022-12-09T03:47:54.252Z,68.40
2022-12-09T03:50:25.217Z,58.00
2022-12-09T03:53:01.418Z,69.37
2022-12-09T03:55:36.212Z,58.93
2022-12-09T03:58:07.379Z,58.60
2022-12-09T04:00:39.030Z,58.93
2022-12-09T04:03:09.815Z,57.07
2022-12-09T04:05:40.229Z,57.90
2022-12-09T04:08:10.786Z,57.23
2022-12-09T04:10:39.408Z,60.27
2022-12-09T04:13:08.562Z,55.37
2022-12-09T04:15:39.933Z,58.23
2022-12-09T04:18:08.844Z,54.00
2022-12-09T04:20:38.190Z,60.23
2022-12-09T04:23:06.754Z,53.40
2022-12-09T04:25:38.552Z,58.47
2022-12-09T04:28:07.291Z,60.93
2022-12-09T04:30:36.062Z,59.00
2022-12-09T04:33:04.721Z,61.70
2022-12-09T04:35:33.209Z,64.53
2022-12-09T04:38:02.160Z,62.63
2022-12-09T04:40:30.881Z,58.93
2022-12-09T04:43:00.803Z,64.40
2022-12-09T04:45:29.239Z,62.67
2022-12-09T04:47:59.468Z,63.87
2022-12-09T04:50:28.209Z,63.70
2022-12-09T04:52:56.706Z,68.30
2022-12-09T04:55:25.350Z,58.03
2022-12-09T04:57:54.251Z,62.07
2022-12-09T05:00:25.293Z,59.30
2022-12-09T05:02:54.292Z,68.83
2022-12-09T05:05:23.522Z,67.40
2022-12-09T05:07:52.428Z,65.43
2022-12-09T05:10:21.540Z,68.40
2022-12-09T05:12:50.332Z,63.50
2022-12-09T05:15:19.595Z,60.67
2022-12-09T05:17:49.863Z,62.40
2022-12-09T05:20:18.859Z,64.10
2022-12-09T05:22:47.812Z,67.40
2022-12-09T05:25:16.893Z,59.70
2022-12-09T05:27:45.547Z,64.90
2022-12-09T05:30:15.140Z,67.13
2022-12-09T05:32:44.759Z,64.10
2022-12-09T05:35:15.365Z,65.03
2022-12-09T05:37:44.326Z,67.00
2022-12-09T05:40:14.133Z,67.80
2022-12-09T05:42:42.963Z,71.27
2022-12-09T05:45:12.524Z,62.67
2022-12-09T05:47:41.783Z,68.93
2022-12-09T05:50:12.355Z,72.70
2022-12-09T05:52:42.801Z,71.00
2022-12-09T05:55:12.039Z,70.07
2022-12-09T05:57:40.952Z,63.43
2022-12-09T06:00:10.816Z,70.97
2022-12-09T06:02:43.000Z,65.97
2022-12-09T06:05:12.344Z,60.43
2022-12-09T06:07:43.324Z,70.27
2022-12-09T06:10:13.166Z,60.73
2022-12-09T06:12:42.417Z,67.63
2022-12-09T06:15:15.822Z,62.47
2022-12-09T06:17:49.649Z,77.77
2022-12-09T06:20:18.954Z,64.77
2022-12-09T06:22:49.148Z,61.80
2022-12-09T06:25:18.072Z,68.50
2022-12-09T06:27:47.350Z,68.40
2022-12-09T06:30:16.292Z,67.17
2022-12-09T06:32:45.296Z,72.93
2022-12-09T06:35:15.195Z,64.23
2022-12-09T06:37:44.256Z,66.57
2022-12-09T06:40:14.648Z,66.30
2022-12-09T06:42:43.345Z,70.57
2022-12-09T06:45:13.273Z,82.00
2022-12-09T06:47:42.823Z,73.47
2022-12-09T06:50:12.343Z,73.43
2022-12-09T06:52:42.148Z,77.70
2022-12-09T06:55:13.177Z,76.63
2022-12-09T06:57:43.818Z,70.40
2022-12-09T07:00:14.065Z,72.10
2022-12-09T07:02:42.729Z,71.27
2022-12-09T07:05:12.864Z,71.43
2022-12-09T07:07:41.935Z,69.77
2022-12-09T07:10:17.754Z,68.67
2022-12-09T07:12:48.255Z,70.13
2022-12-09T07:15:17.056Z,71.27
2022-12-09T07:17:46.059Z,74.77
2022-12-09T07:20:14.912Z,73.43
2022-12-09T07:22:43.700Z,77.83
2022-12-09T07:25:12.611Z,77.20
2022-12-09T07:27:41.790Z,71.60
2022-12-09T07:30:12.976Z,78.47
2022-12-09T07:32:41.585Z,73.50
2022-12-09T07:35:11.438Z,73.77
2022-12-09T07:37:40.573Z,70.17
2022-12-09T07:40:09.866Z,72.17
2022-12-09T07:42:38.627Z,76.43
2022-12-09T07:45:09.114Z,77.27
2022-12-09T07:47:39.458Z,73.90
2022-12-09T07:50:09.786Z,73.60
2022-12-09T07:52:38.530Z,69.20
2022-12-09T07:55:09.163Z,64.83
2022-12-09T07:57:38.719Z,70.40
2022-12-09T08:00:09.389Z,61.77
2022-12-09T08:02:42.146Z,65.33
2022-12-09T08:05:11.843Z,70.70
2022-12-09T08:07:44.265Z,67.37
2022-12-09T08:10:13.986Z,63.33
2022-12-09T08:12:43.070Z,75.40
2022-12-09T08:15:13.083Z,67.17
2022-12-09T08:17:43.552Z,73.57
2022-12-09T08:20:13.551Z,77.90
2022-12-09T08:22:42.681Z,77.47
2022-12-09T08:25:12.268Z,70.20
2022-12-09T08:27:41.095Z,72.50
2022-12-09T08:30:11.286Z,69.17
2022-12-09T08:32:40.200Z,72.87
2022-12-09T08:35:15.235Z,78.13
2022-12-09T08:37:45.177Z,69.73
2022-12-09T08:40:14.781Z,66.27
2022-12-09T08:42:43.883Z,71.50
2022-12-09T08:45:12.671Z,62.07
2022-12-09T08:47:42.696Z,76.80
2022-12-09T08:50:13.517Z,70.90
2022-12-09T08:52:43.127Z,67.47
2022-12-09T08:55:12.115Z,77.33
2022-12-09T08:57:41.184Z,77.40
2022-12-09T09:00:10.931Z,70.63
2022-12-09T09:02:41.205Z,71.63
2022-12-09T09:05:10.956Z,77.33
2022-12-09T09:07:42.175Z,78.47
2022-12-09T09:10:12.144Z,73.33
2022-12-09T09:12:43.912Z,67.73
2022-12-09T09:15:14.398Z,68.43
2022-12-09T09:17:48.166Z,70.63
2022-12-09T09:20:20.279Z,73.10
2022-12-09T09:22:51.046Z,66.87
2022-12-09T09:25:19.854Z,72.23
2022-12-09T09:27:48.516Z,72.03
2022-12-09T09:30:17.778Z,76.57
2022-12-09T09:32:47.040Z,70.23
2022-12-09T09:35:15.792Z,67.60
2022-12-09T09:37:44.629Z,74.30
2022-12-09T09:40:15.528Z,72.90
2022-12-09T09:42:49.212Z,70.43
2022-12-09T09:45:22.049Z,64.27
2022-12-09T09:47:54.401Z,63.93
2022-12-09T09:50:30.942Z,60.43
2022-12-09T09:52:59.951Z,57.97
2022-12-09T09:55:37.501Z,56.87
2022-12-09T09:58:17.028Z,56.90
2022-12-09T10:00:53.440Z,55.07
2022-12-09T10:03:36.559Z,54.50
2022-12-09T10:06:18.760Z,53.63
2022-12-09T10:08:59.463Z,59.73
2022-12-09T10:11:38.638Z,56.13
2022-12-09T10:14:18.447Z,43.40
2022-12-09T10:16:55.341Z,46.60
2022-12-09T10:19:31.006Z,43.83
2022-12-09T10:22:03.548Z,43.17
2022-12-09T10:24:39.971Z,42.63
2022-12-09T10:27:21.189Z,36.43
2022-12-09T10:29:57.834Z,48.30
2022-12-09T10:32:30.786Z,35.67
2022-12-09T10:35:00.390Z,40.47
2022-12-09T10:37:32.223Z,36.03
2022-12-09T10:40:20.261Z,37.47
2022-12-09T10:43:09.632Z,36.60
2022-12-09T10:46:16.816Z,32.90
2022-12-09T10:48:37.684Z,31.73
2022-12-09T10:51:08.815Z,31.77
2022-12-09T10:53:38.242Z,29.50
2022-12-09T10:56:08.541Z,25.47
2022-12-09T10:58:38.685Z,24.87
2022-12-09T11:01:11.146Z,29.37
2022-12-09T11:03:41.500Z,23.90
2022-12-09T11:06:22.148Z,25.60
2022-12-09T11:08:54.650Z,21.60
2022-12-09T11:11:42.079Z,22.10
2022-12-09T11:14:24.177Z,23.30
2022-12-09T11:16:54.585Z,21.03
2022-12-09T11:19:36.001Z,21.13
2022-12-09T11:22:22.513Z,18.37
2022-12-09T11:24:56.520Z,20.47
2022-12-09T11:27:31.931Z,18.83
2022-12-09T11:30:15.557Z,18.13
2022-12-09T11:32:57.169Z,20.23
2022-12-09T11:35:54.250Z,19.97
2022-12-09T11:38:31.465Z,17.80
2022-12-09T11:41:13.442Z,17.33
2022-12-09T11:43:46.632Z,20.20
2022-12-09T11:46:27.290Z,17.00
2022-12-09T11:48:59.631Z,17.53
2022-12-09T11:51:33.274Z,21.30
2022-12-09T11:54:06.720Z,17.17
2022-12-09T11:56:37.284Z,15.27
2022-12-09T11:59:13.108Z,20.13
2022-12-09T12:01:51.349Z,18.47
2022-12-09T12:04:27.887Z,19.40
2022-12-09T12:07:03.729Z,15.40
2022-12-09T12:09:39.109Z,20.20
2022-12-09T12:12:18.513Z,19.53
2022-12-09T12:14:47.260Z,22.37
2022-12-09T12:17:20.992Z,18.20
2022-12-09T12:19:52.227Z,25.80
2022-12-09T12:23:11.790Z,16.43
2022-12-09T12:25:50.199Z,22.13
2022-12-09T12:28:51.752Z,25.50
2022-12-09T12:31:51.501Z,21.90
2022-12-09T12:34:28.496Z,19.97
2022-12-09T12:37:06.423Z,20.70
2022-12-09T12:39:47.312Z,20.43
2022-12-09T12:42:27.628Z,24.33
2022-12-09T12:45:21.717Z,21.93
2022-12-09T12:47:56.689Z,24.27
2022-12-09T12:50:41.235Z,22.40
2022-12-09T12:53:19.193Z,22.37
2022-12-09T12:55:55.028Z,20.37
2022-12-09T12:58:39.251Z,18.80
2022-12-09T13:01:15.622Z,19.80
2022-12-09T13:03:54.600Z,21.80
2022-12-09T13:06:32.457Z,20.50
2022-12-09T13:09:05.270Z,25.67
2022-12-09T13:11:40.017Z,22.87
2022-12-09T13:14:15.178Z,22.73
2022-12-09T13:16:46.031Z,16.53
2022-12-09T13:19:18.602Z,17.80
2022-12-09T13:21:49.087Z,17.60
2022-12-09T13:24:27.450Z,16.67
2022-12-09T13:27:02.339Z,19.33
2022-12-09T13:29:40.677Z,18.43
2022-12-09T13:32:23.756Z,18.87
2022-12-09T13:34:55.530Z,21.57
2022-12-09T13:37:55.812Z,19.37
2022-12-09T13:40:31.339Z,23.43
2022-12-09T13:43:19.577Z,19.63
2022-12-09T13:45:51.951Z,17.57
2022-12-09T13:48:46.280Z,19.03
2022-12-09T13:51:16.179Z,20.30
2022-12-09T13:53:53.712Z,19.87
2022-12-09T13:56:29.973Z,19.63
2022-12-09T13:59:31.056Z,18.90
2022-12-09T14:02:03.304Z,17.33
2022-12-09T14:04:35.097Z,18.03
2022-12-09T14:07:17.764Z,16.43
2022-12-09T14:09:51.168Z,15.07
2022-12-09T14:12:52.831Z,21.67
2022-12-09T14:15:41.983Z,19.50
2022-12-09T14:18:33.060Z,18.90
2022-12-09T14:21:33.709Z,18.10
2022-12-09T14:24:44.735Z,21.57
2022-12-09T14:27:20.821Z,21.80
2022-12-09T14:29:55.881Z,14.93
2022-12-09T14:32:31.058Z,17.90
2022-12-09T14:35:17.468Z,18.37
2022-12-09T14:38:11.312Z,26.00
2022-12-09T14:40:53.421Z,17.00
2022-12-09T14:43:38.591Z,22.77
2022-12-09T14:46:18.909Z,17.20
2022-12-09T14:48:53.761Z,18.43
2022-12-09T14:51:26.171Z,20.20
2022-12-09T14:53:59.335Z,18.40
2022-12-09T14:56:30.163Z,23.43
2022-12-09T14:59:04.232Z,19.57
2022-12-09T15:01:48.531Z,20.97
2022-12-09T15:04:24.795Z,20.83
2022-12-09T15:07:08.638Z,20.27
2022-12-09T15:09:37.145Z,19.13
2022-12-09T15:12:11.483Z,20.47
2022-12-09T15:14:49.742Z,19.10
2022-12-09T15:17:24.067Z,17.60
2022-12-09T15:20:01.333Z,21.03
2022-12-09T15:22:32.776Z,19.57
2022-12-09T15:25:03.226Z,18.23
2022-12-09T15:27:33.759Z,19.67
2022-12-09T15:30:21.690Z,20.23
2022-12-09T15:32:50.241Z,17.87
2022-12-09T15:35:23.719Z,22.70
2022-12-09T15:37:56.109Z,21.93
2022-12-09T15:40:29.237Z,23.00
2022-12-09T15:43:02.533Z,20.17
2022-12-09T15:45:36.874Z,19.93
2022-12-09T15:48:12.056Z,20.93
2022-12-09T15:50:47.636Z,21.07
2022-12-09T15:53:23.406Z,18.87
2022-12-09T15:55:56.053Z,19.23
2022-12-09T15:58:30.339Z,24.33
2022-12-09T16:01:00.349Z,24.60
2022-12-09T16:03:32.283Z,24.97
2022-12-09T16:06:10.265Z,26.73
2022-12-09T16:08:40.670Z,21.60
2022-12-09T16:11:09.358Z,22.10
2022-12-09T16:13:57.683Z,23.17
2022-12-09T16:16:35.263Z,23.37
2022-12-09T16:19:04.994Z,22.27
2022-12-09T16:21:35.628Z,24.17
2022-12-09T16:24:11.558Z,19.20
2022-12-09T16:26:45.415Z,22.47
2022-12-09T16:29:20.807Z,22.83
2022-12-09T16:32:17.792Z,27.90
2022-12-09T16:34:48.261Z,26.00
2022-12-09T16:37:30.866Z,19.80
2022-12-09T16:40:00.218Z,21.30
2022-12-09T16:42:31.332Z,20.67
2022-12-09T16:45:23.141Z,17.57
2022-12-09T16:47:56.078Z,24.80
2022-12-09T16:50:28.712Z,21.63
2022-12-09T16:52:58.974Z,26.93
2022-12-09T16:55:29.835Z,24.07
2022-12-09T16:57:59.397Z,21.43
2022-12-09T17:00:27.980Z,22.80
2022-12-09T17:03:02.036Z,19.87
2022-12-09T17:05:30.517Z,20.87
2022-12-09T17:07:59.155Z,21.70
2022-12-09T17:10:27.592Z,24.50
2022-12-09T17:12:56.131Z,22.83
2022-12-09T17:15:24.653Z,21.37
2022-12-09T17:17:52.968Z,23.10
2022-12-09T17:20:22.809Z,21.30
2022-12-09T17:22:51.249Z,18.27
2022-12-09T17:25:19.775Z,21.57
2022-12-09T17:27:48.231Z,25.57
2022-12-09T17:30:16.656Z,27.13
2022-12-09T17:32:45.121Z,26.53
2022-12-09T17:35:16.254Z,21.37
2022-12-09T17:37:46.245Z,18.50
2022-12-09T17:40:14.639Z,27.80
2022-12-09T17:42:43.144Z,26.90
2022-12-09T17:45:11.476Z,25.03
2022-12-09T17:47:40.409Z,34.37
2022-12-09T17:50:09.530Z,30.53
2022-12-09T17:52:38.548Z,34.53
2022-12-09T17:55:09.573Z,22.83
2022-12-09T17:57:38.294Z,26.20
2022-12-09T18:00:08.761Z,19.27
2022-12-09T18:02:46.274Z,21.87
2022-12-09T18:05:15.436Z,22.53
2022-12-09T18:07:43.906Z,33.97
2022-12-09T18:10:13.841Z,22.57
2022-12-09T18:12:42.259Z,28.67
2022-12-09T18:15:11.395Z,18.20
2022-12-09T18:17:39.963Z,18.60
2022-12-09T18:20:10.225Z,19.47
2022-12-09T18:22:38.975Z,30.60
2022-12-09T18:25:08.696Z,21.63
2022-12-09T18:27:38.589Z,23.67
2022-12-09T18:30:08.849Z,21.47
2022-12-09T18:32:37.612Z,22.63
2022-12-09T18:35:06.814Z,28.60
2022-12-09T18:37:35.373Z,30.07
2022-12-09T18:40:04.213Z,26.37
2022-12-09T18:42:32.885Z,30.60
2022-12-09T18:45:02.913Z,29.10
2022-12-09T18:47:31.599Z,30.83
2022-12-09T18:49:59.986Z,32.67
2022-12-09T18:52:28.524Z,23.60
2022-12-09T18:54:56.958Z,30.93
2022-12-09T18:57:30.543Z,31.77
2022-12-09T18:59:59.447Z,28.50
2022-12-09T19:02:29.552Z,33.67
2022-12-09T19:04:58.546Z,33.03
2022-12-09T19:07:32.116Z,32.63
2022-12-09T19:10:01.029Z,28.17
2022-12-09T19:12:46.399Z,29.40
2022-12-09T19:15:16.294Z,30.00
2022-12-09T19:17:47.221Z,32.87
2022-12-09T19:20:15.692Z,26.67
2022-12-09T19:22:44.266Z,29.40
2022-12-09T19:25:13.796Z,24.93
2022-12-09T19:27:42.212Z,41.47
2022-12-09T19:30:11.823Z,35.37
2022-12-09T19:32:55.941Z,34.70
2022-12-09T19:35:26.479Z,38.10
2022-12-09T19:38:00.888Z,34.97
2022-12-09T19:40:29.954Z,31.97
2022-12-09T19:42:58.568Z,33.40
2022-12-09T19:45:27.231Z,37.07
2022-12-09T19:47:55.700Z,32.37
2022-12-09T19:50:25.746Z,33.70
2022-12-09T19:52:54.462Z,31.50
2022-12-09T19:55:23.013Z,26.30
2022-12-09T19:57:52.357Z,47.17
2022-12-09T20:00:20.855Z,53.20
2022-12-09T20:02:50.881Z,38.20
2022-12-09T20:05:19.507Z,30.13
2022-12-09T20:07:49.438Z,39.90
2022-12-09T20:10:17.953Z,39.23
2022-12-09T20:12:46.428Z,77.53
2022-12-09T20:15:14.994Z,79.67
2022-12-09T20:17:43.700Z,63.73
2022-12-09T20:20:12.743Z,74.63
2022-12-09T20:22:41.141Z,50.33
2022-12-09T20:25:11.404Z,42.20
2022-12-09T20:27:39.896Z,45.87
2022-12-09T20:30:10.143Z,45.70
2022-12-09T20:32:38.739Z,47.67
2022-12-09T20:35:08.982Z,44.03
2022-12-09T20:37:38.533Z,50.93
2022-12-09T20:40:08.226Z,42.57
2022-12-09T20:42:38.555Z,41.40
2022-12-09T20:45:08.103Z,46.57
2022-12-09T20:47:36.562Z,43.80
2022-12-09T20:50:06.269Z,46.83
2022-12-09T20:52:35.065Z,45.57
2022-12-09T20:55:03.509Z,37.43
2022-12-09T20:57:32.886Z,36.67
2022-12-09T21:00:02.721Z,45.33
2022-12-09T21:02:33.531Z,37.50
2022-12-09T21:05:01.970Z,39.80
2022-12-09T21:07:30.298Z,40.93
2022-12-09T21:09:58.764Z,29.27
2022-12-09T21:12:30.265Z,54.60
2022-12-09T21:14:58.930Z,40.90
2022-12-09T21:17:28.669Z,40.47
2022-12-09T21:19:57.142Z,44.80
2022-12-09T21:22:26.580Z,44.43
2022-12-09T21:24:54.971Z,42.97
2022-12-09T21:27:23.381Z,47.63
2022-12-09T21:29:51.868Z,42.90
2022-12-09T21:32:20.307Z,40.00
2022-12-09T21:34:50.202Z,44.13
2022-12-09T21:37:18.648Z,47.13
2022-12-09T21:39:47.854Z,48.03
2022-12-09T21:42:16.315Z,47.93
2022-12-09T21:44:44.779Z,46.03
2022-12-09T21:47:13.279Z,45.70
2022-12-09T21:49:41.670Z,53.27
2022-12-09T21:52:11.479Z,44.40
2022-12-09T21:54:39.906Z,41.07
2022-12-09T21:57:08.394Z,37.67
2022-12-09T21:59:36.847Z,39.17
2022-12-09T22:02:06.136Z,45.23
2022-12-09T22:04:34.633Z,47.03
2022-12-09T22:07:03.223Z,43.73
2022-12-09T22:09:33.386Z,47.70
2022-12-09T22:12:02.830Z,50.17
2022-12-09T22:14:31.706Z,42.33
2022-12-09T22:17:00.842Z,44.00
2022-12-09T22:19:29.637Z,60.60
2022-12-09T22:21:58.099Z,71.87
2022-12-09T22:24:26.785Z,58.50
2022-12-09T22:26:56.568Z,56.77
2022-12-09T22:29:25.263Z,54.37
2022-12-09T22:31:53.592Z,59.60
2022-12-09T22:34:22.277Z,57.47
2022-12-09T22:36:51.241Z,64.67
2022-12-09T22:39:22.491Z,57.80
2022-12-09T22:44:10.425Z,54.80
2022-12-09T22:46:39.391Z,57.97
2022-12-09T22:49:08.098Z,53.03
2022-12-09T22:51:37.806Z,48.10
2022-12-09T22:54:08.327Z,47.77
2022-12-09T22:56:38.224Z,59.17
2022-12-09T22:59:07.507Z,58.73
2022-12-09T23:01:38.502Z,57.57
2022-12-09T23:04:08.669Z,61.33
2022-12-09T23:06:38.911Z,59.13
2022-12-09T23:09:09.307Z,50.77
2022-12-09T23:11:38.251Z,61.13
2022-12-09T23:14:06.936Z,55.40
2022-12-09T23:16:35.293Z,63.93
2022-12-09T23:19:05.272Z,57.73
2022-12-09T23:21:35.901Z,50.97
2022-12-09T23:24:13.207Z,56.57
2022-12-09T23:26:43.043Z,59.30
2022-12-09T23:29:15.654Z,60.87
2022-12-09T23:31:44.597Z,68.23
2022-12-09T23:34:15.588Z,58.93
2022-12-09T23:36:45.642Z,57.47
2022-12-09T23:39:17.132Z,55.20
2022-12-09T23:41:46.887Z,62.17
2022-12-09T23:44:17.246Z,59.33
2022-12-09T23:46:45.913Z,60.43
2022-12-09T23:49:16.239Z,64.53
2022-12-09T23:51:45.110Z,61.37
2022-12-09T23:54:15.660Z,49.40
2022-12-09T23:56:49.718Z,59.23
2022-12-09T23:59:21.539Z,66.70
